Main page
METAR-TAF:

METAR-TAF

Airports :

Shimla Airport

Shimla, India

latitude: 31-04-54N, longitude: 77-04-05E, elevation: 1546 m

Current weather observation

The report was made 7 hours and 37 minutes ago, at 06:00 UTC
Wind 6 kt from the Southwest
Temperature 25°C
Humidity 65%
Pressure 1012 hPa
Visibility: 5000 m
Broken clouds at a height of 6000 ft
haze,

METAR: VISM 210600Z 23006KT 5000 HZ BKN060 25/18 Q1012

Time: 19:07 (13:37 UTC)

Forecast

The report was made 8 hours and 37 minutes ago, at 05:00 UTC
Forecast valid from 21 at 06 UTC to 21 at 15 UTC
Wind 2 kt from variable directions
Visibility: 5000 m
Broken clouds at a height of 6000 ft
haze
Temporary
from 21 at 09 UTC to 21 at 13 UTC
Wind 8 kt from the West/Northwest with gusts up to 18 kt
Visibility: 2000 m
Scattered clouds at a height of 2500 ft
Few clouds at a height of 3500 ft, Cumulonimbus.
Overcast at a height of 8000 ft
thunderstorm, light rain,

TAF: VISM 210500Z 2106/2115 VRB02KT 5000 HZ BKN060 TEMPO 2109/2113 29008G18KT 2000 -TSRA SCT025 FEW035CB OVC080

Weather observations and forecasts of more than 4000 airports (METAR and TAF reports).

The available stations are represented by yellow and red dots on the map.

Hover mouse over dot to see the name of the station.

Then click to see weather observations and forecasts.

To change the map : click on the green buttons with a black cross to zoom in, on the green button with a dash to zoom out, or on the green arrows for adjacent maps.


METAR-TAF: